createdAt,value
2019-03-20T00:00:05.208Z,101673.75
2019-03-20T00:02:09.110Z,101677.38
2019-03-20T00:04:13.121Z,101683.98
2019-03-20T00:06:17.021Z,101684.17
2019-03-20T00:08:20.925Z,101679.34
2019-03-20T00:10:24.832Z,101681.88
2019-03-20T00:12:28.742Z,101681.88
2019-03-20T00:14:32.640Z,101678.6
2019-03-20T00:16:36.518Z,101670.87
2019-03-20T00:18:40.554Z,101677.23
2019-03-20T00:20:44.377Z,101681.59
2019-03-20T00:22:48.265Z,101677.16
2019-03-20T00:24:52.272Z,101676.11
2019-03-20T00:26:56.174Z,101680.04
2019-03-20T00:29:00.078Z,101680.85
2019-03-20T00:31:03.983Z,101681.3
2019-03-20T00:33:07.880Z,101685.06
2019-03-20T00:35:11.792Z,101684.28
2019-03-20T00:37:15.698Z,101686.56
2019-03-20T00:39:19.706Z,101684.8
2019-03-20T00:41:23.535Z,101685.52
2019-03-20T00:43:27.338Z,101683.58
2019-03-20T00:45:31.218Z,101683.12
2019-03-20T00:47:35.118Z,101687.53
2019-03-20T00:49:39.124Z,101683.12
2019-03-20T00:51:43.030Z,101684.12
2019-03-20T00:53:46.937Z,101688.28
2019-03-20T00:55:50.943Z,101687.03
2019-03-20T00:57:54.863Z,101689.31
2019-03-20T00:59:58.856Z,101687.94
2019-03-20T01:02:02.762Z,101689.16
2019-03-20T01:04:06.768Z,101691.27
2019-03-20T01:06:10.673Z,101692.27
2019-03-20T01:08:14.577Z,101693.48
2019-03-20T01:10:18.483Z,101680.11
2019-03-20T01:12:22.303Z,101699.05
2019-03-20T01:14:26.189Z,101699.35
2019-03-20T01:16:30.095Z,101695.52
2019-03-20T01:18:34.103Z,101694.58
2019-03-20T01:20:38.010Z,101691.72
2019-03-20T01:22:41.917Z,101692.56
2019-03-20T01:24:45.819Z,101695.41
2019-03-20T01:26:49.723Z,101690.81
2019-03-20T01:28:53.627Z,101689.12
2019-03-20T01:30:57.634Z,101692.22
2019-03-20T01:33:01.542Z,101690.11
2019-03-20T01:35:05.446Z,101697.33
2019-03-20T01:37:09.351Z,101701.02
2019-03-20T01:39:13.255Z,101703.17
2019-03-20T01:41:17.159Z,101703.66
2019-03-20T01:43:21.082Z,101703.66
2019-03-20T01:45:24.969Z,101702.12
2019-03-20T01:47:28.986Z,101691.83
2019-03-20T01:49:32.880Z,101708.27
2019-03-20T01:51:36.784Z,101709.62
2019-03-20T01:53:40.695Z,101708.77
2019-03-20T01:55:44.495Z,101711.53
2019-03-20T01:57:49.730Z,101713.07
2019-03-20T01:59:53.634Z,101717.66
2019-03-20T02:01:57.538Z,101716.81
2019-03-20T02:04:01.447Z,101721.48
2019-03-20T02:06:05.353Z,101720.59
2019-03-20T02:08:09.254Z,101721.23
2019-03-20T02:10:13.157Z,101717.78
2019-03-20T02:12:17.166Z,101720.65
2019-03-20T02:14:20.974Z,101725.66
2019-03-20T02:16:24.844Z,101729.4
2019-03-20T02:18:28.780Z,101727.8
2019-03-20T02:20:32.682Z,101727.25
2019-03-20T02:22:36.587Z,101725.2
2019-03-20T02:24:40.496Z,101728.5
2019-03-20T02:26:44.399Z,101731.53
2019-03-20T02:28:48.308Z,101731.44
2019-03-20T02:30:52.516Z,101733.92
2019-03-20T02:32:57.651Z,101739.28
2019-03-20T02:35:01.957Z,101741.53
2019-03-20T02:37:05.974Z,101737.61
2019-03-20T02:39:09.882Z,101738.42
2019-03-20T02:41:13.782Z,101744.23
2019-03-20T02:43:17.583Z,101747.16
2019-03-20T02:45:21.495Z,101746.33
2019-03-20T02:47:25.396Z,101753.64
2019-03-20T02:49:29.300Z,101754.86
2019-03-20T02:51:33.204Z,101756.38
2019-03-20T02:53:37.110Z,101754.91
2019-03-20T02:55:41.014Z,101755.71
2019-03-20T02:57:44.919Z,101753.16
2019-03-20T02:59:48.826Z,101751.84
2019-03-20T03:01:52.639Z,101757.25
2019-03-20T03:03:56.532Z,101756.61
2019-03-20T03:06:08.042Z,101762.22
2019-03-20T03:08:11.917Z,101761.3
2019-03-20T03:10:15.831Z,101761.56
2019-03-20T03:12:19.832Z,101763.34
2019-03-20T03:14:23.748Z,101765.84
2019-03-20T03:16:27.639Z,101772.36
2019-03-20T03:18:31.545Z,101774.19
2019-03-20T03:20:35.449Z,101762.86
2019-03-20T03:22:39.368Z,101767.58
2019-03-20T03:24:43.264Z,101770.44
2019-03-20T03:26:47.167Z,101771.59
2019-03-20T03:28:51.069Z,101773.92
2019-03-20T03:30:54.975Z,101773.61
2019-03-20T03:32:58.981Z,101771.98
2019-03-20T03:35:03.004Z,101774.56
2019-03-20T03:37:06.895Z,101770.83
2019-03-20T03:39:10.798Z,101768.44
2019-03-20T03:41:14.629Z,101773.05
2019-03-20T03:43:18.511Z,101773.91
2019-03-20T03:45:22.514Z,101771.44
2019-03-20T03:47:26.421Z,101779.84
2019-03-20T03:49:30.326Z,101780.7
2019-03-20T03:51:34.232Z,101779.54
2019-03-20T03:53:38.146Z,101782.62
2019-03-20T03:55:42.142Z,101780.89
2019-03-20T03:57:46.149Z,101781.63
2019-03-20T03:59:50.056Z,101779.24
2019-03-20T04:01:53.963Z,101784.34
2019-03-20T04:03:57.965Z,101786.25
2019-03-20T04:06:01.789Z,101788.67
2019-03-20T04:08:05.774Z,101794.3
2019-03-20T04:10:09.742Z,101790.5
2019-03-20T04:12:13.687Z,101790.41
2019-03-20T04:14:17.597Z,101797.77
2019-03-20T04:16:21.601Z,101796.03
2019-03-20T04:18:25.608Z,101799.77
2019-03-20T04:20:29.614Z,101804.62
2019-03-20T04:22:33.520Z,101804.73
2019-03-20T04:24:37.428Z,101804.41
2019-03-20T04:26:41.333Z,101809
2019-03-20T04:28:45.235Z,101819.94
2019-03-20T04:30:49.142Z,101824.37
2019-03-20T04:32:53.045Z,101826.28
2019-03-20T04:34:56.909Z,101826.34
2019-03-20T04:37:00.855Z,101823.52
2019-03-20T04:39:04.758Z,101825.01
2019-03-20T04:41:08.681Z,101829.5
2019-03-20T04:43:12.571Z,101827.13
2019-03-20T04:45:16.472Z,101828.97
2019-03-20T04:47:20.379Z,101836.26
2019-03-20T04:49:24.282Z,101840.64
2019-03-20T04:51:28.189Z,101840.02
2019-03-20T04:53:32.098Z,101845.18
2019-03-20T04:55:36.002Z,101843.71
2019-03-20T04:57:39.902Z,101847.13
2019-03-20T04:59:43.708Z,101849.34
2019-03-20T05:01:47.614Z,101853.56
2019-03-20T05:03:51.521Z,101852.09
2019-03-20T05:05:55.422Z,101853.39
2019-03-20T05:07:59.329Z,101855.05
2019-03-20T05:10:03.230Z,101858.14
2019-03-20T05:12:07.136Z,101861.39
2019-03-20T05:14:13.398Z,101864.75
2019-03-20T05:16:17.305Z,101865.55
2019-03-20T05:18:21.205Z,101864.02
2019-03-20T05:20:25.213Z,101867.59
2019-03-20T05:22:29.118Z,101870.74
2019-03-20T05:24:33.022Z,101875.33
2019-03-20T05:26:36.929Z,101880.39
2019-03-20T05:28:40.835Z,101880.8
2019-03-20T05:30:44.737Z,101882.03
2019-03-20T05:32:48.849Z,101880.14
2019-03-20T05:34:52.958Z,101874.77
2019-03-20T05:36:56.964Z,101876.44
2019-03-20T05:39:01.014Z,101882.12
2019-03-20T05:41:04.876Z,101882.76
2019-03-20T05:43:08.780Z,101883.31
2019-03-20T05:45:12.789Z,101887.78
2019-03-20T05:47:16.897Z,101889.39
2019-03-20T05:49:20.803Z,101891.34
2019-03-20T05:51:24.812Z,101889.59
2019-03-20T05:53:29.851Z,101888.66
2019-03-20T05:55:33.853Z,101889.7
2019-03-20T05:57:37.701Z,101894.11
2019-03-20T05:59:41.557Z,101893.63
2019-03-20T06:01:45.462Z,101895.31
2019-03-20T06:03:49.473Z,101901.37
2019-03-20T06:05:53.374Z,101902.2
2019-03-20T06:07:57.215Z,101903.03
2019-03-20T06:10:01.082Z,101904.77
2019-03-20T06:12:04.986Z,101911.45
2019-03-20T06:14:08.896Z,101898.73
2019-03-20T06:16:12.796Z,101912
2019-03-20T06:18:16.812Z,101911.83
2019-03-20T06:20:20.708Z,101914.61
2019-03-20T06:22:24.731Z,101902.66
2019-03-20T06:24:28.780Z,101922.11
2019-03-20T06:26:32.729Z,101921.2
2019-03-20T06:28:36.636Z,101925.47
2019-03-20T06:30:40.539Z,101926.72
2019-03-20T06:32:44.638Z,101925.16
2019-03-20T06:34:50.091Z,101929.2
2019-03-20T06:36:53.995Z,101931.59
2019-03-20T06:38:57.932Z,101935.37
2019-03-20T06:41:01.807Z,101936.07
2019-03-20T06:43:05.711Z,101930.8
2019-03-20T06:45:09.614Z,101930.83
2019-03-20T06:47:13.521Z,101938.31
2019-03-20T06:49:17.323Z,101939.47
2019-03-20T06:51:21.227Z,101944.06
2019-03-20T06:53:25.150Z,101947.27
2019-03-20T06:55:29.039Z,101949.14
2019-03-20T06:57:32.947Z,101950.61
2019-03-20T06:59:36.824Z,101949.56
2019-03-20T07:01:41.879Z,101952.61
2019-03-20T07:03:45.885Z,101950.29
2019-03-20T07:05:49.788Z,101946.78
2019-03-20T07:07:53.623Z,101955.64
2019-03-20T07:09:57.487Z,101959.06
2019-03-20T07:12:01.404Z,101962.38
2019-03-20T07:14:05.426Z,101962.3
2019-03-20T07:16:09.316Z,101967.97
2019-03-20T07:18:13.223Z,101959.77
2019-03-20T07:20:17.127Z,101957.8
2019-03-20T07:22:21.031Z,101960.88
2019-03-20T07:24:24.935Z,101959.69
2019-03-20T07:26:29.862Z,101964.73
2019-03-20T07:28:33.775Z,101966.26
2019-03-20T07:30:37.673Z,101970.22
2019-03-20T07:32:41.579Z,101965.59
2019-03-20T07:34:45.484Z,101957.67
2019-03-20T07:36:49.496Z,101966.1
2019-03-20T07:38:53.319Z,101965.39
2019-03-20T07:40:57.131Z,101969.3
2019-03-20T07:43:09.807Z,101974.38
2019-03-20T07:45:14.032Z,101976.94
2019-03-20T07:47:18.027Z,101976.77
2019-03-20T07:49:21.931Z,101976.52
2019-03-20T07:51:25.835Z,101971.92
2019-03-20T07:53:29.739Z,101977.95
2019-03-20T07:55:33.653Z,101975.75
2019-03-20T07:57:37.552Z,101977.67
2019-03-20T07:59:41.459Z,101978.13
2019-03-20T08:01:45.362Z,101985.31
2019-03-20T08:03:49.266Z,101971.16
2019-03-20T08:05:53.104Z,101980.03
2019-03-20T08:08:08.004Z,101987.75
2019-03-20T08:10:11.938Z,101984.02
2019-03-20T08:12:15.841Z,101986.09
2019-03-20T08:14:19.711Z,101989.11
2019-03-20T08:16:23.651Z,101986.64
2019-03-20T08:18:27.582Z,101983.09
2019-03-20T08:20:31.461Z,101987.19
2019-03-20T08:22:35.468Z,101985.86
2019-03-20T08:24:39.374Z,101987.14
2019-03-20T08:26:43.278Z,101988.73
2019-03-20T08:28:47.184Z,101991.36
2019-03-20T08:30:51.090Z,101990.48
2019-03-20T08:32:54.994Z,101988.3
2019-03-20T08:34:58.899Z,101986.72
2019-03-20T08:37:03.626Z,101985.38
2019-03-20T08:39:07.731Z,101988.16
2019-03-20T08:41:11.638Z,101981.97
2019-03-20T08:43:15.541Z,101986.34
2019-03-20T08:45:19.453Z,101992.88
2019-03-20T08:47:23.352Z,101994.12
2019-03-20T08:49:27.258Z,101992.2
2019-03-20T08:51:31.161Z,101993.98
2019-03-20T08:53:35.170Z,101989.35
2019-03-20T08:55:39.073Z,101993.95
2019-03-20T08:57:43.036Z,101987.13
2019-03-20T08:59:46.987Z,101994.22
2019-03-20T09:01:50.893Z,101988.71
2019-03-20T09:03:54.797Z,101993.95
2019-03-20T09:05:58.701Z,101983.36
2019-03-20T09:08:02.606Z,101989.81
2019-03-20T09:10:06.512Z,101977.33
2019-03-20T09:12:10.428Z,101977.31
2019-03-20T09:14:14.323Z,101978.84
2019-03-20T09:16:19.527Z,101981.92
2019-03-20T09:18:34.192Z,101978.58
2019-03-20T09:20:38.225Z,101977.1
2019-03-20T09:34:53.881Z,101978.23
2019-03-20T09:36:57.789Z,102001.04
2019-03-20T09:39:01.794Z,101994.06
2019-03-20T09:41:05.699Z,101999.63
2019-03-20T09:43:56.608Z,102007.36
2019-03-20T09:46:00.568Z,102015.66
2019-03-20T09:48:18.861Z,102008.39
2019-03-20T09:50:22.758Z,102007.6
2019-03-20T09:52:26.663Z,102000.81
2019-03-20T09:57:15.843Z,102029.91
2019-03-20T09:59:19.648Z,102029.92
2019-03-20T10:01:23.755Z,102026.31
2019-03-20T10:03:27.968Z,102023.75
2019-03-20T10:05:31.977Z,102018.89
2019-03-20T10:07:35.879Z,102019.34
2019-03-20T10:17:28.181Z,102034.39
2019-03-20T10:19:31.933Z,102043.7
2019-03-20T10:21:35.689Z,102020.05
2019-03-20T10:23:39.425Z,102001.91
2019-03-20T10:25:45.925Z,102003.88
2019-03-20T10:27:51.783Z,102003.5
2019-03-20T10:29:55.678Z,101995.44
2019-03-20T10:31:59.387Z,102003.16
2019-03-20T10:34:03.133Z,101975.74
2019-03-20T10:36:06.884Z,101992.85
2019-03-20T10:38:10.622Z,102010.34
2019-03-20T10:40:14.401Z,102023.55
2019-03-20T10:42:18.127Z,102022.68
2019-03-20T10:44:21.856Z,102040.11
2019-03-20T10:46:25.596Z,102036.7
2019-03-20T10:48:29.339Z,102027.98
2019-03-20T10:50:33.073Z,102041.42
2019-03-20T10:52:36.824Z,102034
2019-03-20T10:54:40.542Z,102017.36
2019-03-20T10:56:44.257Z,102018.31
2019-03-20T10:58:48.019Z,101995.91
2019-03-20T11:00:51.753Z,101989.17
2019-03-20T11:02:55.509Z,101980.69
2019-03-20T11:04:59.279Z,101974.03
2019-03-20T11:07:03.012Z,101978.1
2019-03-20T11:09:18.873Z,101973.09
2019-03-20T11:11:28.107Z,101967.33
2019-03-20T11:13:31.835Z,101965.14
2019-03-20T11:15:35.603Z,101969.55
2019-03-20T11:17:39.338Z,101965.33
2019-03-20T11:19:43.052Z,101975.13
2019-03-20T11:21:46.784Z,101984.89
2019-03-20T11:23:50.511Z,101981.91
2019-03-20T11:25:54.240Z,101980.51
2019-03-20T11:27:58.033Z,101975.61
2019-03-20T11:30:01.767Z,101977.38
2019-03-20T11:32:05.494Z,101976.33
2019-03-20T11:34:09.257Z,101974.77
2019-03-20T11:36:12.978Z,101962.57
2019-03-20T11:38:16.705Z,101965.3
2019-03-20T11:40:20.478Z,101972.45
2019-03-20T11:42:24.200Z,101959.05
2019-03-20T11:44:27.934Z,101955.5
2019-03-20T11:46:31.665Z,101961.2
2019-03-20T11:48:35.376Z,101955.86
2019-03-20T11:50:39.101Z,101958.22
2019-03-20T11:52:42.865Z,101959.17
2019-03-20T11:54:46.602Z,101963
2019-03-20T11:56:50.322Z,101955.92
2019-03-20T11:58:54.189Z,101959.83
2019-03-20T12:00:57.909Z,101957.39
2019-03-20T12:03:40.778Z,101961.5
2019-03-20T12:04:43.588Z,101967.01
2019-03-20T12:05:46.358Z,101951.84
2019-03-20T12:06:49.158Z,101960.31
2019-03-20T12:07:51.941Z,101965.48
2019-03-20T12:08:54.739Z,101964.09
2019-03-20T12:09:58.945Z,101961
2019-03-20T12:11:01.894Z,101960.73
2019-03-20T12:12:04.672Z,101975.9
2019-03-20T12:13:07.459Z,101964.94
2019-03-20T12:14:10.271Z,101967.62
2019-03-20T12:15:13.122Z,101960.26
2019-03-20T12:16:15.897Z,101953.02
2019-03-20T12:17:21.244Z,101965.55
2019-03-20T12:18:24.030Z,101965.48
2019-03-20T12:19:26.813Z,101964.55
2019-03-20T12:20:29.607Z,101967.41
2019-03-20T12:21:32.395Z,101959.6
2019-03-20T12:22:35.215Z,101953.86
2019-03-20T12:23:38.020Z,101961.2
2019-03-20T12:24:40.784Z,101956.48
2019-03-20T12:25:43.626Z,101957.89
2019-03-20T12:26:46.419Z,101956.39
2019-03-20T12:27:49.188Z,101962.3
2019-03-20T12:28:51.970Z,101956.64
2019-03-20T12:29:54.735Z,101960.89
2019-03-20T12:31:10.948Z,101954.6
2019-03-20T12:32:13.729Z,101954.97
2019-03-20T12:33:16.508Z,101960.97
2019-03-20T12:34:19.350Z,101958.87
2019-03-20T12:35:22.203Z,101956.8
2019-03-20T12:41:24.506Z,102000.66
2019-03-20T12:42:28.589Z,102004.81
2019-03-20T12:43:32.634Z,102006.52
2019-03-20T12:44:36.695Z,102002.33
2019-03-20T12:46:00.370Z,101997.38
2019-03-20T12:47:04.435Z,101994.62
2019-03-20T12:48:24.608Z,101999.06
2019-03-20T12:49:28.694Z,101998.24
2019-03-20T12:51:22.462Z,102002.55
2019-03-20T12:52:25.659Z,101992.19
2019-03-20T12:53:28.857Z,101988.75
2019-03-20T12:54:32.017Z,101985.72
2019-03-20T12:55:35.190Z,101985.56
2019-03-20T12:56:38.345Z,101986.46
2019-03-20T12:57:41.544Z,101976.25
2019-03-20T12:58:44.681Z,101972.61
2019-03-20T12:59:47.837Z,101978.23
2019-03-20T13:01:52.374Z,101975.58
2019-03-20T13:46:51.742Z,101900.3
2019-03-20T13:47:54.503Z,101907.82
2019-03-20T13:48:57.283Z,101916.19
2019-03-20T13:50:01.323Z,101918.7
2019-03-20T13:51:04.106Z,101920.98
2019-03-20T13:52:06.865Z,101919.47
2019-03-20T13:53:09.621Z,101924.23
2019-03-20T13:54:12.382Z,101914.14
2019-03-20T13:55:15.208Z,101927.54
2019-03-20T13:56:17.988Z,101929.72
2019-03-20T13:57:20.764Z,101926.91
2019-03-20T13:58:23.535Z,101935.53
2019-03-20T13:59:26.313Z,101929.56
2019-03-20T14:00:29.138Z,101929.77
2019-03-20T14:01:31.902Z,101933.17
2019-03-20T14:02:34.660Z,101933.47
2019-03-20T14:03:37.414Z,101934.29
2019-03-20T14:04:40.195Z,101931.69
2019-03-20T14:05:42.998Z,101927.09
2019-03-20T14:06:45.793Z,101923.16
2019-03-20T14:07:48.564Z,101922.39
2019-03-20T14:08:51.331Z,101929.34
2019-03-20T14:09:54.096Z,101929.93
2019-03-20T14:10:56.911Z,101930.53
2019-03-20T14:11:59.675Z,101924.48
2019-03-20T14:13:02.454Z,101923.74
2019-03-20T14:14:05.231Z,101908.55
2019-03-20T14:15:08.008Z,101911.48
2019-03-20T14:16:10.789Z,101911.17
2019-03-20T14:17:13.574Z,101913.95
2019-03-20T14:18:16.350Z,101907.09
2019-03-20T14:19:19.118Z,101907.67
2019-03-20T14:20:21.887Z,101911.41
2019-03-20T14:21:24.806Z,101907.39
2019-03-20T14:22:27.597Z,101888.45
2019-03-20T14:23:30.800Z,101904.07
2019-03-20T14:24:33.567Z,101900.57
2019-03-20T14:25:36.339Z,101904.15
2019-03-20T14:26:39.102Z,101898.18
2019-03-20T14:27:41.967Z,101897.43
2019-03-20T14:28:44.756Z,101898.45
2019-03-20T14:29:47.515Z,101897.59
2019-03-20T14:30:50.282Z,101893.88
2019-03-20T14:31:53.082Z,101898.37
2019-03-20T14:32:56.067Z,101904.8
2019-03-20T14:33:58.858Z,101895.19
2019-03-20T14:35:01.646Z,101900.63
2019-03-20T14:36:04.422Z,101892.5
2019-03-20T14:37:07.192Z,101891.24
2019-03-20T14:38:10.032Z,101892.59
2019-03-20T14:39:12.818Z,101890.79
2019-03-20T14:40:15.587Z,101893.23
2019-03-20T14:41:22.647Z,101895.71
2019-03-20T14:42:25.510Z,101900.33
2019-03-20T14:43:28.337Z,101897.61
2019-03-20T14:44:31.235Z,101900.42
2019-03-20T14:45:34.006Z,101892.81
2019-03-20T14:46:36.795Z,101898.83
2019-03-20T14:47:43.320Z,101892.95
2019-03-20T14:48:46.113Z,101902.55
2019-03-20T14:49:48.962Z,101893.68
2019-03-20T14:50:51.743Z,101893.84
2019-03-20T14:51:54.521Z,101899.05
2019-03-20T14:52:57.287Z,101899.08
2019-03-20T14:54:00.093Z,101892.89
2019-03-20T14:55:02.869Z,101889.97
2019-03-20T14:56:05.656Z,101886.47
2019-03-20T14:57:08.429Z,101888.03
2019-03-20T14:58:11.222Z,101889.38
2019-03-20T14:59:13.993Z,101888.47
2019-03-20T15:00:16.820Z,101886.63
2019-03-20T15:01:19.606Z,101878.05
2019-03-20T15:02:22.391Z,101885.23
2019-03-20T15:03:25.166Z,101878.34
2019-03-20T15:04:27.965Z,101892.2
2019-03-20T15:05:30.758Z,101894.49
2019-03-20T15:06:33.580Z,101888.2
2019-03-20T15:07:36.357Z,101895.48
2019-03-20T15:08:39.172Z,101895.86
2019-03-20T15:09:41.959Z,101896.91
2019-03-20T15:10:47.211Z,101894.19
2019-03-20T15:11:49.997Z,101890.45
2019-03-20T15:12:52.765Z,101900.7
2019-03-20T15:13:55.536Z,101896.61
2019-03-20T15:14:58.372Z,101908.05
2019-03-20T15:16:01.143Z,101908.57
2019-03-20T15:17:04.131Z,101901.6
2019-03-20T15:18:06.925Z,101911.18
2019-03-20T15:19:09.720Z,101899.34
2019-03-20T15:20:12.545Z,101904.66
2019-03-20T15:21:15.313Z,101901.65
2019-03-20T15:22:18.085Z,101902.44
2019-03-20T15:23:20.861Z,101895.56
2019-03-20T15:24:23.638Z,101895.78
2019-03-20T15:25:26.460Z,101895.45
2019-03-20T15:26:29.245Z,101898.79
2019-03-20T15:27:32.011Z,101896.64
2019-03-20T15:28:34.782Z,101891.53
2019-03-20T15:29:37.543Z,101891.27
2019-03-20T15:30:40.325Z,101901.61
2019-03-20T15:31:43.129Z,101899.02
2019-03-20T15:32:45.905Z,101906.17
2019-03-20T15:33:48.666Z,101905.77
2019-03-20T15:34:51.427Z,101901.67
2019-03-20T15:35:54.207Z,101901.32
2019-03-20T15:36:57.011Z,101905.14
2019-03-20T15:37:59.785Z,101909.34
2019-03-20T15:39:02.598Z,101913.45
2019-03-20T15:40:05.378Z,101911.63
2019-03-20T15:41:08.138Z,101918.22
2019-03-20T15:42:10.933Z,101910.05
2019-03-20T15:43:13.692Z,101906.19
2019-03-20T15:44:16.454Z,101905.02
2019-03-20T15:45:19.256Z,101901.62
2019-03-20T15:46:22.014Z,101903.86
2019-03-20T15:47:24.800Z,101908.29
2019-03-20T15:48:27.595Z,101911.84
2019-03-20T15:49:30.415Z,101909.52
2019-03-20T15:50:33.177Z,101909.39
2019-03-20T15:51:35.941Z,101904.23
2019-03-20T15:52:38.697Z,101902.86
2019-03-20T15:53:41.461Z,101899.77
2019-03-20T15:54:44.261Z,101906.63
2019-03-20T15:55:47.035Z,101903.8
2019-03-20T15:56:49.808Z,101911.82
2019-03-20T15:57:52.575Z,101911.42
2019-03-20T15:58:55.335Z,101905.37
2019-03-20T15:59:58.143Z,101902.77
2019-03-20T16:01:00.920Z,101899.12
2019-03-20T16:02:03.675Z,101892.83
2019-03-20T16:03:06.443Z,101897.53
2019-03-20T16:04:09.220Z,101892.77
2019-03-20T16:05:12.047Z,101890.99
2019-03-20T16:06:14.810Z,101888.89
2019-03-20T16:07:17.576Z,101888.28
2019-03-20T16:08:20.352Z,101888.87
2019-03-20T16:09:23.124Z,101892.28
2019-03-20T16:10:25.938Z,101889.81
2019-03-20T16:11:28.694Z,101890.87
2019-03-20T16:12:31.555Z,101891.14
2019-03-20T16:13:34.367Z,101890.64
2019-03-20T16:14:37.142Z,101893.17
2019-03-20T16:15:40.000Z,101901.23
2019-03-20T16:16:42.811Z,101891.97
2019-03-20T16:17:45.603Z,101891.09
2019-03-20T16:18:48.371Z,101894.55
2019-03-20T16:19:51.147Z,101894.36
2019-03-20T16:20:53.942Z,101892.67
2019-03-20T16:21:56.732Z,101893.44
2019-03-20T16:22:59.532Z,101894.28
2019-03-20T16:24:07.940Z,101895.28
2019-03-20T16:25:10.704Z,101897.17
2019-03-20T16:26:13.605Z,101898.41
2019-03-20T16:27:16.427Z,101902.81
2019-03-20T16:28:19.205Z,101901.37
2019-03-20T16:29:22.008Z,101872.16
2019-03-20T16:30:24.971Z,101896.72
2019-03-20T16:31:27.781Z,101897.45
2019-03-20T16:32:30.544Z,101901.03
2019-03-20T16:33:33.320Z,101879.62
2019-03-20T16:34:36.109Z,101898.58
2019-03-20T16:35:38.951Z,101899.55
2019-03-20T16:36:41.734Z,101902.19
2019-03-20T16:37:44.504Z,101904.56
2019-03-20T16:38:47.282Z,101899.78
2019-03-20T16:39:50.059Z,101901.11
2019-03-20T16:40:52.836Z,101879.9
2019-03-20T16:41:55.895Z,101874.8
2019-03-20T16:42:58.753Z,101851.45
2019-03-20T16:44:01.672Z,101894.08
2019-03-20T16:45:04.443Z,101895.63
2019-03-20T16:46:07.209Z,101895.66
2019-03-20T16:47:10.033Z,101894.69
2019-03-20T16:48:12.832Z,101895.72
2019-03-20T16:49:15.769Z,101897.55
2019-03-20T16:50:18.541Z,101896.05
2019-03-20T16:51:21.378Z,101896.83
2019-03-20T16:52:24.223Z,101896.45
2019-03-20T16:53:27.013Z,101897.67
2019-03-20T16:54:30.063Z,101898.45
2019-03-20T16:55:32.841Z,101902.16
2019-03-20T16:56:35.609Z,101897.7
2019-03-20T16:57:38.399Z,101898.38
2019-03-20T16:58:41.161Z,101897.24
2019-03-20T16:59:44.021Z,101897.81
2019-03-20T17:00:46.948Z,101894.48
2019-03-20T17:01:49.731Z,101866.27
2019-03-20T17:02:53.113Z,101893.91
2019-03-20T17:03:55.876Z,101890.52
2019-03-20T17:04:58.698Z,101886
2019-03-20T17:06:01.846Z,101885.72
2019-03-20T17:07:04.640Z,101860.09
2019-03-20T17:08:07.412Z,101875.97
2019-03-20T17:09:10.258Z,101875.55
2019-03-20T17:10:13.467Z,101871.08
2019-03-20T17:11:26.271Z,101876.96
2019-03-20T17:12:30.306Z,101875.45
2019-03-20T17:13:33.087Z,101876.02
2019-03-20T17:14:36.116Z,101877.66
2019-03-20T17:15:38.944Z,101879.86
2019-03-20T17:16:43.911Z,101890.16
2019-03-20T17:17:46.708Z,101890.2
2019-03-20T17:18:49.498Z,101886.78
2019-03-20T17:19:52.277Z,101890.07
2019-03-20T17:20:55.092Z,101891.91
2019-03-20T17:21:57.875Z,101890.09
2019-03-20T17:23:00.639Z,101896.88
2019-03-20T17:24:03.408Z,101898.66
2019-03-20T17:25:06.237Z,101899.83
2019-03-20T17:26:09.199Z,101895.46
2019-03-20T17:27:11.971Z,101892.39
2019-03-20T17:28:14.744Z,101895.94
2019-03-20T17:29:17.718Z,101903.48
2019-03-20T17:30:20.476Z,101906.62
2019-03-20T17:31:23.292Z,101903.01
2019-03-20T17:32:26.122Z,101910.44
2019-03-20T17:33:29.121Z,101911.13
2019-03-20T17:34:31.969Z,101912.36
2019-03-20T17:35:34.785Z,101918.14
2019-03-20T17:36:37.580Z,101917.67
2019-03-20T17:37:40.377Z,101919.35
2019-03-20T17:38:43.351Z,101924.41
2019-03-20T17:39:46.129Z,101915.73
2019-03-20T17:40:49.486Z,101921.93
2019-03-20T17:41:52.550Z,101923.67
2019-03-20T17:42:55.587Z,101917.82
2019-03-20T17:43:58.494Z,101922.59
2019-03-20T17:45:01.343Z,101918.13
2019-03-20T17:46:10.161Z,101919.36
2019-03-20T17:47:13.086Z,101918.37
2019-03-20T17:48:17.329Z,101893.12
2019-03-20T17:49:20.569Z,101924.59
2019-03-20T17:50:23.392Z,101921.66
2019-03-20T17:51:26.154Z,101916.18
2019-03-20T17:52:29.326Z,101921.11
2019-03-20T17:53:32.119Z,101926.77
2019-03-20T17:54:35.126Z,101927.94
2019-03-20T17:55:37.914Z,101926.12
2019-03-20T17:56:40.735Z,101927.76
2019-03-20T17:57:43.751Z,101925.6
2019-03-20T17:58:46.640Z,101927.16
2019-03-20T17:59:49.533Z,101928.36
2019-03-20T18:00:52.316Z,101925.53
2019-03-20T18:01:55.262Z,101930.05
2019-03-20T18:02:58.238Z,101926.27
2019-03-20T18:04:01.076Z,101925.19
2019-03-20T18:05:03.914Z,101921.27
2019-03-20T18:06:06.684Z,101920.31
2019-03-20T18:07:09.499Z,101925.58
2019-03-20T18:08:12.478Z,101929.66
2019-03-20T18:09:15.281Z,101931.74
2019-03-20T18:10:18.317Z,101930.25
2019-03-20T18:11:21.125Z,101931.01
2019-03-20T18:12:24.595Z,101932.57
2019-03-20T18:13:27.432Z,101932.94
2019-03-20T18:14:30.219Z,101927.59
2019-03-20T18:15:33.000Z,101901.88
2019-03-20T18:16:35.856Z,101921.77
2019-03-20T18:17:38.749Z,101927.38
2019-03-20T18:18:41.536Z,101925.17
2019-03-20T18:19:44.331Z,101902.34
2019-03-20T18:20:47.092Z,101922.34
2019-03-20T18:21:49.861Z,101922.17
2019-03-20T18:22:52.668Z,101924.91
2019-03-20T18:23:55.659Z,101921.2
2019-03-20T18:24:58.532Z,101918.29
2019-03-20T18:26:01.297Z,101915.32
2019-03-20T18:27:04.219Z,101923.69
2019-03-20T18:28:06.989Z,101921.07
2019-03-20T18:29:09.799Z,101923.13
2019-03-20T18:30:12.583Z,101925.05
2019-03-20T18:31:15.557Z,101923.33
2019-03-20T18:32:18.333Z,101924.61
2019-03-20T18:33:21.105Z,101930.77
2019-03-20T18:34:23.929Z,101937.46
2019-03-20T18:35:26.740Z,101932.26
2019-03-20T18:36:29.531Z,101934.7
2019-03-20T18:37:32.310Z,101940.41
2019-03-20T18:38:35.119Z,101937.14
2019-03-20T18:39:37.945Z,101938.47
2019-03-20T18:40:40.735Z,101937.88
2019-03-20T18:41:43.526Z,101935.73
2019-03-20T18:42:46.312Z,101934.41
2019-03-20T18:43:49.167Z,101930.8
2019-03-20T18:44:52.032Z,101928.95
2019-03-20T18:45:54.831Z,101891.95
2019-03-20T18:46:57.998Z,101920.67
2019-03-20T18:48:01.107Z,101920.2
2019-03-20T18:49:03.895Z,101912.19
2019-03-20T18:50:06.816Z,101915.23
2019-03-20T18:51:09.656Z,101914.5
2019-03-20T18:52:12.458Z,101915.78
2019-03-20T18:53:15.240Z,101915.78
2019-03-20T18:54:18.072Z,101910.38
2019-03-20T18:55:21.642Z,101890.69
2019-03-20T18:56:24.514Z,101912.96
2019-03-20T18:57:27.289Z,101910.99
2019-03-20T18:58:30.121Z,101912.41
2019-03-20T18:59:32.889Z,101907.7
2019-03-20T19:00:35.711Z,101911.29